createdAt,value
2022-09-12T00:00:31.790Z,4.50
2022-09-12T00:02:55.167Z,4.00
2022-09-12T00:05:18.403Z,4.00
2022-09-12T00:07:41.673Z,2.97
2022-09-12T00:10:07.646Z,2.15
2022-09-12T00:12:30.806Z,1.73
2022-09-12T00:14:53.961Z,1.30
2022-09-12T00:17:17.155Z,1.00
2022-09-12T00:19:40.297Z,1.15
2022-09-12T00:22:03.528Z,0.90
2022-09-12T00:24:26.717Z,1.60
2022-09-12T00:26:51.310Z,1.17
2022-09-12T00:31:39.575Z,0.95
2022-09-12T00:34:03.121Z,0.73
2022-09-12T00:36:26.505Z,1.20
2022-09-12T00:38:49.752Z,0.98
2022-09-12T00:41:15.194Z,1.83
2022-09-12T00:43:40.668Z,1.05
2022-09-12T00:46:05.006Z,1.20
2022-09-12T00:50:52.867Z,1.48
2022-09-12T00:53:16.021Z,1.23
2022-09-12T00:55:40.235Z,1.45
2022-09-12T00:58:04.961Z,1.70
2022-09-12T01:00:29.968Z,1.30
2022-09-12T01:02:54.743Z,1.45
2022-09-12T01:05:18.061Z,1.67
2022-09-12T01:07:41.278Z,1.67
2022-09-12T01:10:05.518Z,1.75
2022-09-12T01:12:28.699Z,1.50
2022-09-12T01:14:51.925Z,1.27
2022-09-12T01:17:16.890Z,1.50
2022-09-12T01:20:16.481Z,2.08
2022-09-12T01:22:55.180Z,1.50
2022-09-12T01:25:21.454Z,1.77
2022-09-12T01:27:52.079Z,1.67
2022-09-12T01:30:27.809Z,1.65
2022-09-12T01:33:09.709Z,1.45
2022-09-12T01:35:34.150Z,1.40
2022-09-12T01:40:25.361Z,1.70
2022-09-12T01:45:17.986Z,1.55
2022-09-12T01:47:43.051Z,1.60
2022-09-12T01:50:08.074Z,1.45
2022-09-12T01:52:33.465Z,1.70
2022-09-12T01:54:58.727Z,1.77
2022-09-12T01:57:25.070Z,1.60
2022-09-12T01:59:49.472Z,2.03
2022-09-12T02:04:40.109Z,1.60
2022-09-12T02:07:05.059Z,1.20
2022-09-12T02:09:30.518Z,1.67
2022-09-12T02:11:55.611Z,1.48
2022-09-12T02:14:20.402Z,2.05
2022-09-12T02:16:44.364Z,1.92
2022-09-12T02:19:09.990Z,1.27
2022-09-12T02:21:34.513Z,1.60
2022-09-12T02:26:22.677Z,3.25
2022-09-12T02:28:48.905Z,4.43
2022-09-12T02:31:15.427Z,4.55
2022-09-12T02:33:40.372Z,4.38
2022-09-12T02:36:07.127Z,4.72
2022-09-12T02:38:34.374Z,4.30
2022-09-12T02:40:57.551Z,4.95
2022-09-12T02:43:20.794Z,4.50
2022-09-12T02:45:43.965Z,3.65
2022-09-12T02:48:08.794Z,3.70
2022-09-12T02:50:31.933Z,4.13
2022-09-12T02:52:59.732Z,3.67
2022-09-12T02:55:24.790Z,3.70
2022-09-12T02:57:48.024Z,2.97
2022-09-12T03:00:12.176Z,3.10
2022-09-12T03:02:43.633Z,3.33
2022-09-12T03:05:15.127Z,3.60
2022-09-12T03:07:47.554Z,4.38
2022-09-12T03:10:13.561Z,3.83
2022-09-12T03:12:44.197Z,3.88
2022-09-12T03:15:19.950Z,5.85
2022-09-12T03:17:53.352Z,5.10
2022-09-12T03:20:18.021Z,5.70
2022-09-12T03:22:47.084Z,6.95
2022-09-12T03:25:14.775Z,7.10
2022-09-12T03:27:38.593Z,6.10
2022-09-12T03:30:03.222Z,7.35
2022-09-12T03:35:04.187Z,9.35
2022-09-12T03:37:27.343Z,8.43
2022-09-12T03:39:50.533Z,7.38
2022-09-12T03:42:13.722Z,7.88
2022-09-12T03:44:36.985Z,7.05
2022-09-12T03:47:01.564Z,7.10
2022-09-12T03:49:25.030Z,6.75
2022-09-12T03:51:48.199Z,6.05
2022-09-12T03:54:11.489Z,7.38
2022-09-12T03:56:34.650Z,6.78
2022-09-12T03:58:57.953Z,7.13
2022-09-12T04:01:21.209Z,6.32
2022-09-12T04:03:46.624Z,5.05
2022-09-12T04:06:10.198Z,5.68
2022-09-12T04:08:33.415Z,5.33
2022-09-12T04:10:56.797Z,5.20
2022-09-12T04:13:20.053Z,5.40
2022-09-12T04:15:43.194Z,3.47
2022-09-12T04:18:06.671Z,3.90
2022-09-12T04:20:31.176Z,3.47
2022-09-12T04:25:17.530Z,2.22
2022-09-12T04:27:40.818Z,2.30
2022-09-12T04:30:04.209Z,3.13
2022-09-12T04:32:27.441Z,2.20
2022-09-12T04:34:52.392Z,1.88
2022-09-12T04:37:17.011Z,1.38
2022-09-12T04:42:04.898Z,1.13
2022-09-12T04:44:28.098Z,1.35
2022-09-12T04:46:51.242Z,1.23
2022-09-12T04:49:14.516Z,1.73
2022-09-12T04:51:38.607Z,1.02
2022-09-12T04:54:04.277Z,1.20
2022-09-12T04:56:27.565Z,1.40
2022-09-12T04:58:50.811Z,1.20
2022-09-12T05:01:15.328Z,1.00
2022-09-12T05:06:03.618Z,1.50
2022-09-12T05:08:26.951Z,1.30
2022-09-12T05:10:51.489Z,1.15
2022-09-12T05:13:14.710Z,1.20
2022-09-12T05:15:37.858Z,1.23
2022-09-12T05:18:01.139Z,1.40
2022-09-12T05:20:24.263Z,1.63
2022-09-12T05:22:47.519Z,1.25
2022-09-12T05:25:11.149Z,1.77
2022-09-12T05:27:35.718Z,1.77
2022-09-12T05:29:59.149Z,1.65
2022-09-12T05:32:22.374Z,1.05
2022-09-12T05:34:45.526Z,1.17
2022-09-12T05:37:08.978Z,1.52
2022-09-12T05:39:32.155Z,1.60
2022-09-12T05:41:56.488Z,2.08
2022-09-12T05:44:21.106Z,1.45
2022-09-12T05:46:46.682Z,1.63
2022-09-12T05:49:11.559Z,1.27
2022-09-12T05:51:35.590Z,1.52
2022-09-12T05:54:00.532Z,1.65
2022-09-12T05:56:25.302Z,1.30
2022-09-12T05:58:49.493Z,2.08
2022-09-12T06:01:14.952Z,2.05
2022-09-12T06:03:40.832Z,1.95
2022-09-12T06:06:05.169Z,2.55
2022-09-12T06:10:51.298Z,1.98
2022-09-12T06:13:14.448Z,1.83
2022-09-12T06:15:37.699Z,1.75
2022-09-12T06:18:02.282Z,1.63
2022-09-12T06:22:48.451Z,1.20
2022-09-12T06:25:11.614Z,1.00
2022-09-12T06:27:34.754Z,1.48
2022-09-12T06:29:57.945Z,1.63
2022-09-12T06:32:21.262Z,1.10
2022-09-12T06:34:47.735Z,1.17
2022-09-12T06:37:11.317Z,1.98
2022-09-12T06:39:36.626Z,1.20
2022-09-12T06:41:59.778Z,1.58
2022-09-12T06:44:32.440Z,1.95
2022-09-12T06:46:55.610Z,1.20
2022-09-12T06:49:18.858Z,1.45
2022-09-12T06:51:43.413Z,1.30
2022-09-12T06:54:06.732Z,1.55
2022-09-12T06:56:29.882Z,1.05
2022-09-12T06:58:53.642Z,1.20
2022-09-12T07:01:17.808Z,1.20
2022-09-12T07:03:41.458Z,1.42
2022-09-12T07:06:05.788Z,1.10
2022-09-12T07:10:55.061Z,1.30
2022-09-12T07:13:18.242Z,0.90
2022-09-12T07:15:41.438Z,1.05
2022-09-12T07:18:04.765Z,1.05
2022-09-12T07:20:27.903Z,1.02
2022-09-12T07:22:52.186Z,1.40
2022-09-12T07:25:16.883Z,1.07
2022-09-12T07:27:40.085Z,1.50
2022-09-12T07:30:03.285Z,0.80
2022-09-12T07:32:26.550Z,1.08
2022-09-12T07:34:50.020Z,1.33
2022-09-12T07:37:13.241Z,2.58
2022-09-12T07:39:36.406Z,1.10
2022-09-12T07:42:01.562Z,1.17
2022-09-12T07:44:27.033Z,1.35
2022-09-12T07:46:50.777Z,1.25
2022-09-12T07:49:14.282Z,0.95
2022-09-12T07:51:37.435Z,1.30
2022-09-12T07:54:00.631Z,1.20
2022-09-12T07:56:29.455Z,1.08
2022-09-12T07:58:56.032Z,1.20
2022-09-12T08:01:19.976Z,1.60
2022-09-12T08:03:43.533Z,1.55
2022-09-12T08:06:07.340Z,1.30
2022-09-12T08:08:30.582Z,1.00
2022-09-12T08:10:58.434Z,2.10
2022-09-12T08:13:21.688Z,1.10
2022-09-12T08:15:46.295Z,1.08
2022-09-12T08:18:09.568Z,0.85
2022-09-12T08:20:33.006Z,0.95
2022-09-12T08:22:56.538Z,1.15
2022-09-12T08:25:19.692Z,0.85
2022-09-12T08:27:43.585Z,0.80
2022-09-12T08:30:07.690Z,1.10
2022-09-12T08:32:32.171Z,1.50
2022-09-12T08:37:18.353Z,1.33
2022-09-12T08:39:42.033Z,0.98
2022-09-12T08:42:06.246Z,0.63
2022-09-12T08:44:56.581Z,0.82
2022-09-12T08:47:23.138Z,0.43
2022-09-12T08:49:51.609Z,0.80
2022-09-12T08:52:18.084Z,0.90
2022-09-12T08:54:41.247Z,0.98
2022-09-12T08:57:05.016Z,1.05
2022-09-12T08:59:28.289Z,0.68
2022-09-12T09:01:53.886Z,0.80
2022-09-12T09:04:29.489Z,1.02
2022-09-12T09:07:20.591Z,0.82
2022-09-12T09:09:54.825Z,1.13
2022-09-12T09:12:20.882Z,0.65
2022-09-12T09:14:55.437Z,0.75
2022-09-12T09:17:25.262Z,1.10
2022-09-12T09:19:51.149Z,1.10
2022-09-12T09:22:15.504Z,0.70
2022-09-12T09:24:41.322Z,0.73
2022-09-12T09:27:23.570Z,0.70
2022-09-12T09:29:52.313Z,0.75
2022-09-12T09:32:18.370Z,0.90
2022-09-12T09:34:41.803Z,0.90
2022-09-12T09:37:09.624Z,0.90
2022-09-12T09:39:42.503Z,0.80
2022-09-12T09:42:18.074Z,1.25
2022-09-12T09:44:41.314Z,0.70
2022-09-12T09:47:05.346Z,0.73
2022-09-12T09:49:29.325Z,0.75
2022-09-12T09:51:52.488Z,1.35
2022-09-12T09:54:19.970Z,0.75
2022-09-12T09:56:44.503Z,0.82
2022-09-12T09:59:12.874Z,0.75
2022-09-12T10:01:36.114Z,0.98
2022-09-12T10:03:59.922Z,0.73
2022-09-12T10:06:28.065Z,1.08
2022-09-12T10:08:51.580Z,0.65
2022-09-12T10:11:19.750Z,0.87
2022-09-12T10:13:53.259Z,1.20
2022-09-12T10:16:20.566Z,0.80
2022-09-12T10:18:43.984Z,0.85
2022-09-12T10:21:18.943Z,0.65
2022-09-12T10:23:42.224Z,1.15
2022-09-12T10:26:06.593Z,0.63
2022-09-12T10:30:56.842Z,0.57
2022-09-12T10:33:20.435Z,0.90
2022-09-12T10:35:44.976Z,1.05
2022-09-12T10:38:08.461Z,0.80
2022-09-12T10:40:32.813Z,0.88
2022-09-12T10:42:56.532Z,0.65
2022-09-12T10:45:24.783Z,0.65
2022-09-12T10:47:49.419Z,0.90
2022-09-12T10:52:46.329Z,1.05
2022-09-12T10:55:14.708Z,0.93
2022-09-12T10:57:52.368Z,1.17
2022-09-12T11:00:17.553Z,0.55
2022-09-12T11:02:51.895Z,1.30
2022-09-12T11:05:20.652Z,0.88
2022-09-12T11:07:47.309Z,0.98
2022-09-12T11:10:35.630Z,1.08
2022-09-12T11:13:07.025Z,1.23
2022-09-12T11:15:42.712Z,0.90
2022-09-12T11:18:12.203Z,1.10
2022-09-12T11:20:41.800Z,0.82
2022-09-12T11:23:41.973Z,0.90
2022-09-12T11:26:08.532Z,0.80
2022-09-12T11:28:35.831Z,0.50
2022-09-12T11:31:08.150Z,0.60
2022-09-12T11:33:42.713Z,0.95
2022-09-12T11:38:53.500Z,1.42
2022-09-12T11:41:18.391Z,1.30
2022-09-12T11:43:43.044Z,1.58
2022-09-12T11:46:10.761Z,1.75
2022-09-12T11:48:39.930Z,1.98
2022-09-12T11:51:04.653Z,1.63
2022-09-12T11:53:29.654Z,1.90
2022-09-12T11:55:56.099Z,1.52
2022-09-12T11:58:19.555Z,1.40
2022-09-12T12:00:44.198Z,1.13
2022-09-12T12:03:09.991Z,1.30
2022-09-12T12:05:37.247Z,1.15
2022-09-12T12:08:01.119Z,1.83
2022-09-12T12:10:31.067Z,2.17
2022-09-12T12:12:54.914Z,1.42
2022-09-12T12:15:18.256Z,1.30
2022-09-12T12:17:41.437Z,1.10
2022-09-12T12:20:08.586Z,1.13
2022-09-12T12:22:33.722Z,0.70
2022-09-12T12:25:02.777Z,0.80
2022-09-12T12:27:45.727Z,0.80
2022-09-12T12:30:34.173Z,0.88
2022-09-12T12:33:00.705Z,0.70
2022-09-12T12:35:39.669Z,0.47
2022-09-12T12:38:04.339Z,0.93
2022-09-12T12:40:29.022Z,0.70
2022-09-12T12:43:06.123Z,0.50
2022-09-12T12:45:48.795Z,1.10
2022-09-12T12:48:12.782Z,1.27
2022-09-12T12:50:36.251Z,1.15
2022-09-12T12:53:00.157Z,0.50
2022-09-12T12:55:26.383Z,0.85
2022-09-12T12:57:50.162Z,0.75
2022-09-12T13:00:29.929Z,0.90
2022-09-12T13:02:56.121Z,0.57
2022-09-12T13:05:21.343Z,0.65
2022-09-12T13:07:44.765Z,0.88
2022-09-12T13:10:08.666Z,0.68
2022-09-12T13:12:34.831Z,0.73
2022-09-12T13:14:58.500Z,1.40
2022-09-12T13:17:26.106Z,0.73
2022-09-12T13:19:49.787Z,0.88
2022-09-12T13:22:13.034Z,1.13
2022-09-12T13:24:36.745Z,1.27
2022-09-12T13:26:59.998Z,0.80
2022-09-12T13:29:25.420Z,0.57
2022-09-12T13:31:49.980Z,1.08
2022-09-12T13:36:51.545Z,1.92
2022-09-12T13:39:16.922Z,1.60
2022-09-12T13:42:19.881Z,0.63
2022-09-12T13:44:45.607Z,0.57
2022-09-12T13:47:09.350Z,0.70
2022-09-12T13:49:34.324Z,0.60
2022-09-12T13:52:00.131Z,1.17
2022-09-12T13:54:24.646Z,0.90
2022-09-12T13:56:48.643Z,0.95
2022-09-12T13:59:12.452Z,1.38
2022-09-12T14:01:40.959Z,1.15
2022-09-12T14:04:26.856Z,0.90
2022-09-12T14:06:51.474Z,0.70
2022-09-12T14:09:15.000Z,0.55
2022-09-12T14:11:40.106Z,2.42
2022-09-12T14:14:03.635Z,0.95
2022-09-12T14:16:29.038Z,1.00
2022-09-12T14:18:54.365Z,1.58
2022-09-12T14:21:28.634Z,0.98
2022-09-12T14:23:51.844Z,0.60
2022-09-12T14:26:15.437Z,1.08
2022-09-12T14:28:40.907Z,1.33
2022-09-12T14:31:06.577Z,0.80
2022-09-12T14:33:30.093Z,0.93
2022-09-12T14:36:08.890Z,0.80
2022-09-12T14:38:35.312Z,0.70
2022-09-12T14:41:01.141Z,0.70
2022-09-12T14:43:26.401Z,1.30
2022-09-12T14:45:55.968Z,0.60
2022-09-12T14:48:19.470Z,0.95
2022-09-12T14:50:42.721Z,1.13
2022-09-12T14:53:08.159Z,1.55
2022-09-12T14:55:32.141Z,0.98
2022-09-12T14:58:08.404Z,0.80
2022-09-12T15:00:31.666Z,1.00
2022-09-12T15:02:54.854Z,1.20
2022-09-12T15:05:26.580Z,0.90
2022-09-12T15:07:54.809Z,0.90
2022-09-12T15:10:22.150Z,0.60
2022-09-12T15:12:45.440Z,0.50
2022-09-12T15:15:14.778Z,0.88
2022-09-12T15:17:38.041Z,0.82
2022-09-12T15:20:01.331Z,0.75
2022-09-12T15:22:25.366Z,0.80
2022-09-12T15:24:49.466Z,1.00
2022-09-12T15:27:14.153Z,0.70
2022-09-12T15:29:37.338Z,1.20
2022-09-12T15:32:00.595Z,0.98
2022-09-12T15:34:23.841Z,0.70
2022-09-12T15:36:47.062Z,0.63
2022-09-12T15:39:10.430Z,0.90
2022-09-12T15:41:35.622Z,0.95
2022-09-12T15:44:01.198Z,1.05
2022-09-12T15:46:24.400Z,1.10
2022-09-12T15:48:47.705Z,0.80
2022-09-12T15:51:15.449Z,0.90
2022-09-12T15:53:39.291Z,1.02
2022-09-12T15:56:02.737Z,1.33
2022-09-12T15:58:26.016Z,1.92
2022-09-12T16:00:50.629Z,1.85
2022-09-12T16:03:19.275Z,1.50
2022-09-12T16:05:42.718Z,1.88
2022-09-12T16:08:06.027Z,2.23
2022-09-12T16:10:31.190Z,2.30
2022-09-12T16:12:54.400Z,2.42
2022-09-12T16:15:19.763Z,3.00
2022-09-12T16:17:44.326Z,1.45
2022-09-12T16:20:08.863Z,1.90
2022-09-12T16:24:55.444Z,2.10
2022-09-12T16:27:19.679Z,1.47
2022-09-12T16:29:42.994Z,1.75
2022-09-12T16:32:06.575Z,1.17
2022-09-12T16:34:31.169Z,0.73
2022-09-12T16:36:54.461Z,1.08
2022-09-12T16:39:17.775Z,0.95
2022-09-12T16:41:42.716Z,1.02
2022-09-12T16:44:05.935Z,1.23
2022-09-12T16:46:29.678Z,0.88
2022-09-12T16:48:53.993Z,1.02
2022-09-12T16:51:20.233Z,1.40
2022-09-12T16:53:43.511Z,1.00
2022-09-12T16:56:07.123Z,1.48
2022-09-12T16:58:33.223Z,0.75
2022-09-12T17:01:01.499Z,0.77
2022-09-12T17:03:24.867Z,1.23
2022-09-12T17:05:48.071Z,2.10
2022-09-12T17:08:12.712Z,3.55
2022-09-12T17:10:35.898Z,3.45
2022-09-12T17:12:59.309Z,4.00
2022-09-12T17:15:22.523Z,3.75
2022-09-12T17:17:47.133Z,4.38
2022-09-12T17:22:34.871Z,3.47
2022-09-12T17:24:59.451Z,3.90
2022-09-12T17:27:22.678Z,3.95
2022-09-12T17:29:45.982Z,5.40
2022-09-12T17:32:09.289Z,3.55
2022-09-12T17:34:32.718Z,3.22
2022-09-12T17:36:55.994Z,4.28
2022-09-12T17:39:19.198Z,4.05
2022-09-12T17:41:44.020Z,3.67
2022-09-12T17:44:07.684Z,5.15
2022-09-12T17:46:33.041Z,3.45
2022-09-12T17:48:57.101Z,4.57
2022-09-12T17:51:20.331Z,3.58
2022-09-12T17:53:43.624Z,4.70
2022-09-12T17:56:07.245Z,3.58
2022-09-12T17:58:31.842Z,2.23
2022-09-12T18:01:24.386Z,2.25
2022-09-12T18:03:48.102Z,2.80
2022-09-12T18:06:11.469Z,1.42
2022-09-12T18:08:34.681Z,1.45
2022-09-12T18:11:04.849Z,1.48
2022-09-12T18:13:28.092Z,1.40
2022-09-12T18:15:52.699Z,1.25
2022-09-12T18:18:15.993Z,1.55
2022-09-12T18:20:39.351Z,1.13
2022-09-12T18:23:02.590Z,1.52
2022-09-12T18:25:26.038Z,1.90
2022-09-12T18:27:49.251Z,1.17
2022-09-12T18:30:22.168Z,1.15
2022-09-12T18:32:46.903Z,1.52
2022-09-12T18:35:10.515Z,1.40
2022-09-12T18:37:33.774Z,1.23
2022-09-12T18:39:57.946Z,1.70
2022-09-12T18:42:21.215Z,1.30
2022-09-12T18:44:44.487Z,1.13
2022-09-12T18:47:08.734Z,2.13
2022-09-12T18:49:33.443Z,2.10
2022-09-12T18:51:57.099Z,2.20
2022-09-12T18:54:20.667Z,2.10
2022-09-12T18:56:45.661Z,1.33
2022-09-12T18:59:08.930Z,1.23
2022-09-12T19:01:32.896Z,0.93
2022-09-12T19:03:56.394Z,1.00
2022-09-12T19:06:21.651Z,1.33
2022-09-12T19:08:45.032Z,1.30
2022-09-12T19:11:08.610Z,0.82
2022-09-12T19:13:31.914Z,1.10
2022-09-12T19:15:55.231Z,1.08
2022-09-12T19:18:18.572Z,0.98
2022-09-12T19:20:41.857Z,1.02
2022-09-12T19:23:06.536Z,1.00
2022-09-12T19:25:30.066Z,1.00
2022-09-12T19:27:53.292Z,0.88
2022-09-12T19:30:16.704Z,0.80
2022-09-12T19:32:40.055Z,0.95
2022-09-12T19:35:03.264Z,0.95
2022-09-12T19:37:26.562Z,0.77
2022-09-12T19:39:51.228Z,1.20
2022-09-12T19:42:14.524Z,1.40
2022-09-12T19:44:38.290Z,0.60
2022-09-12T19:47:01.644Z,1.02
2022-09-12T19:49:24.887Z,0.60
2022-09-12T19:51:48.166Z,0.80
2022-09-12T19:54:11.402Z,1.33
2022-09-12T19:56:36.008Z,0.65
2022-09-12T19:58:59.506Z,0.80
2022-09-12T20:01:24.909Z,1.02
2022-09-12T20:03:49.073Z,0.80
2022-09-12T20:06:13.164Z,1.17
2022-09-12T20:08:37.273Z,0.70
2022-09-12T20:11:00.482Z,0.90
2022-09-12T20:13:25.226Z,1.00
2022-09-12T20:15:48.458Z,0.80
2022-09-12T20:18:11.696Z,0.80
2022-09-12T20:20:34.900Z,1.20
2022-09-12T20:22:58.202Z,1.02
2022-09-12T20:25:21.409Z,0.68
2022-09-12T20:27:44.609Z,0.45
2022-09-12T20:30:10.862Z,0.43
2022-09-12T20:32:34.170Z,0.77
2022-09-12T20:34:57.386Z,0.50
2022-09-12T20:37:21.143Z,0.70
2022-09-12T20:39:47.829Z,1.10
2022-09-12T20:42:13.552Z,0.55
2022-09-12T20:44:36.778Z,0.90
2022-09-12T20:47:01.597Z,0.80
2022-09-12T20:49:24.848Z,0.60
2022-09-12T20:51:48.768Z,0.60
2022-09-12T20:54:11.961Z,0.50
2022-09-12T20:56:36.209Z,0.52
2022-09-12T20:58:59.690Z,0.82
2022-09-12T21:01:23.099Z,0.57
2022-09-12T21:03:47.870Z,0.75
2022-09-12T21:06:12.556Z,0.47
2022-09-12T21:10:59.024Z,0.57
2022-09-12T21:13:22.210Z,0.75
2022-09-12T21:15:45.370Z,0.55
2022-09-12T21:18:08.661Z,0.50
2022-09-12T21:20:33.197Z,0.77
2022-09-12T21:22:56.476Z,0.50
2022-09-12T21:25:19.662Z,0.70
2022-09-12T21:27:42.842Z,0.80
2022-09-12T21:30:06.874Z,0.85
2022-09-12T21:32:34.631Z,0.82
2022-09-12T21:34:57.762Z,0.50
2022-09-12T21:37:22.322Z,0.75
2022-09-12T21:39:45.602Z,0.70
2022-09-12T21:42:08.917Z,0.80
2022-09-12T21:44:32.177Z,0.85
2022-09-12T21:46:55.326Z,0.80
2022-09-12T21:49:18.627Z,0.75
2022-09-12T21:51:41.898Z,0.70
2022-09-12T21:54:06.830Z,0.60
2022-09-12T21:56:30.115Z,0.80
2022-09-12T21:58:53.257Z,0.75
2022-09-12T22:01:16.457Z,0.52
2022-09-12T22:03:39.787Z,0.82
2022-09-12T22:06:04.021Z,0.93
2022-09-12T22:08:27.264Z,0.90
2022-09-12T22:10:51.800Z,0.52
2022-09-12T22:13:15.082Z,1.05
2022-09-12T22:15:41.096Z,0.70
2022-09-12T22:18:05.022Z,0.80
2022-09-12T22:20:28.171Z,0.68
2022-09-12T22:23:10.873Z,0.80
2022-09-12T22:25:34.059Z,0.75
2022-09-12T22:27:58.669Z,0.70
2022-09-12T22:30:22.221Z,0.95
2022-09-12T22:32:45.544Z,0.77
2022-09-12T22:35:09.264Z,1.10
2022-09-12T22:37:32.541Z,0.52
2022-09-12T22:39:55.951Z,0.75
2022-09-12T22:42:19.198Z,1.20
2022-09-12T22:44:43.719Z,1.17
2022-09-12T22:47:07.189Z,0.80
2022-09-12T22:49:31.005Z,0.80
2022-09-12T22:51:54.299Z,0.88
2022-09-12T22:54:17.461Z,1.08
2022-09-12T22:56:40.595Z,0.70
2022-09-12T22:59:03.789Z,0.70
2022-09-12T23:01:28.345Z,0.93
2022-09-12T23:06:14.726Z,0.75
2022-09-12T23:08:38.086Z,0.80
2022-09-12T23:11:02.534Z,0.93
2022-09-12T23:15:49.838Z,0.75
2022-09-12T23:20:37.432Z,0.88
2022-09-12T23:23:00.595Z,1.25
2022-09-12T23:25:24.255Z,1.08
2022-09-12T23:27:48.461Z,0.95
2022-09-12T23:30:13.057Z,1.20
2022-09-12T23:32:36.602Z,0.90
2022-09-12T23:35:01.202Z,1.30
2022-09-12T23:39:47.461Z,1.00
2022-09-12T23:42:10.602Z,1.20
2022-09-12T23:44:33.879Z,1.45
2022-09-12T23:46:57.002Z,1.80
2022-09-12T23:49:20.198Z,0.85
2022-09-12T23:51:44.860Z,1.10
2022-09-12T23:54:08.701Z,0.95
2022-09-12T23:56:31.881Z,0.82
2022-09-12T23:58:55.084Z,1.45
